sensor_id;sensor_type;location;lat;lon;timestamp;temperature;humidity
29813;DHT22;16707;48.106;11.548;2024-02-14T00:01:17;1.90;99.90
29813;DHT22;16707;48.106;11.548;2024-02-14T00:03:44;1.80;99.90
29813;DHT22;16707;48.106;11.548;2024-02-14T00:06:12;1.80;99.90
29813;DHT22;16707;48.106;11.548;2024-02-14T00:08:39;1.80;99.90
29813;DHT22;16707;48.106;11.548;2024-02-14T00:11:05;1.70;99.90
29813;DHT22;16707;48.106;11.548;2024-02-14T00:13:32;1.60;99.90
29813;DHT22;16707;48.106;11.548;2024-02-14T00:15:59;1.60;99.90
29813;DHT22;16707;48.106;11.548;2024-02-14T00:18:26;1.60;99.90
29813;DHT22;16707;48.106;11.548;2024-02-14T00:20:53;1.60;99.90
29813;DHT22;16707;48.106;11.548;2024-02-14T00:23:22;1.70;99.90
29813;DHT22;16707;48.106;11.548;2024-02-14T00:25:48;1.70;99.90
29813;DHT22;16707;48.106;11.548;2024-02-14T00:28:15;1.70;99.90
29813;DHT22;16707;48.106;11.548;2024-02-14T00:30:42;1.80;99.90
29813;DHT22;16707;48.106;11.548;2024-02-14T00:33:08;1.80;99.90
29813;DHT22;16707;48.106;11.548;2024-02-14T00:35:35;1.90;99.90
29813;DHT22;16707;48.106;11.548;2024-02-14T00:38:02;2.00;99.90
29813;DHT22;16707;48.106;11.548;2024-02-14T00:40:30;2.10;99.90
29813;DHT22;16707;48.106;11.548;2024-02-14T00:42:57;2.10;99.90
29813;DHT22;16707;48.106;11.548;2024-02-14T00:45:24;2.20;99.90
29813;DHT22;16707;48.106;11.548;2024-02-14T00:47:51;2.30;99.90
29813;DHT22;16707;48.106;11.548;2024-02-14T00:50:18;2.50;99.90
29813;DHT22;16707;48.106;11.548;2024-02-14T00:52:44;2.60;99.90
29813;DHT22;16707;48.106;11.548;2024-02-14T00:55:11;2.70;99.90
29813;DHT22;16707;48.106;11.548;2024-02-14T00:57:39;2.80;99.90
29813;DHT22;16707;48.106;11.548;2024-02-14T01:00:06;2.90;99.90
29813;DHT22;16707;48.106;11.548;2024-02-14T01:02:34;2.90;99.90
29813;DHT22;16707;48.106;11.548;2024-02-14T01:05:01;3.10;99.90
29813;DHT22;16707;48.106;11.548;2024-02-14T01:07:27;3.10;99.90
29813;DHT22;16707;48.106;11.548;2024-02-14T01:09:54;3.20;99.90
29813;DHT22;16707;48.106;11.548;2024-02-14T01:12:21;3.30;99.90
29813;DHT22;16707;48.106;11.548;2024-02-14T01:14:49;3.30;99.90
29813;DHT22;16707;48.106;11.548;2024-02-14T01:17:15;3.30;99.90
29813;DHT22;16707;48.106;11.548;2024-02-14T01:19:42;3.40;99.90
29813;DHT22;16707;48.106;11.548;2024-02-14T01:22:09;3.30;99.90
29813;DHT22;16707;48.106;11.548;2024-02-14T01:24:36;3.30;99.90
29813;DHT22;16707;48.106;11.548;2024-02-14T01:27:03;3.30;99.90
29813;DHT22;16707;48.106;11.548;2024-02-14T01:29:30;3.30;99.90
29813;DHT22;16707;48.106;11.548;2024-02-14T01:31:58;3.40;99.90
29813;DHT22;16707;48.106;11.548;2024-02-14T01:34:25;3.40;99.90
29813;DHT22;16707;48.106;11.548;2024-02-14T01:36:53;3.40;99.90
29813;DHT22;16707;48.106;11.548;2024-02-14T01:39:20;3.40;99.90
29813;DHT22;16707;48.106;11.548;2024-02-14T01:41:47;3.50;99.90
29813;DHT22;16707;48.106;11.548;2024-02-14T01:44:14;3.60;99.90
29813;DHT22;16707;48.106;11.548;2024-02-14T01:46:41;3.50;99.90
29813;DHT22;16707;48.106;11.548;2024-02-14T01:49:10;3.40;99.90
29813;DHT22;16707;48.106;11.548;2024-02-14T01:51:38;3.50;99.90
29813;DHT22;16707;48.106;11.548;2024-02-14T01:54:06;3.50;99.90
29813;DHT22;16707;48.106;11.548;2024-02-14T01:56:33;3.60;99.90
29813;DHT22;16707;48.106;11.548;2024-02-14T01:59:00;3.60;99.90
29813;DHT22;16707;48.106;11.548;2024-02-14T02:01:27;3.60;99.90
29813;DHT22;16707;48.106;11.548;2024-02-14T02:03:53;3.70;99.90
29813;DHT22;16707;48.106;11.548;2024-02-14T02:06:22;3.70;99.90
29813;DHT22;16707;48.106;11.548;2024-02-14T02:08:48;3.70;99.90
29813;DHT22;16707;48.106;11.548;2024-02-14T02:11:15;3.80;99.90
29813;DHT22;16707;48.106;11.548;2024-02-14T02:13:42;3.80;99.90
29813;DHT22;16707;48.106;11.548;2024-02-14T02:16:09;3.90;99.90
29813;DHT22;16707;48.106;11.548;2024-02-14T02:18:36;4.00;99.90
29813;DHT22;16707;48.106;11.548;2024-02-14T02:21:03;4.00;99.90
29813;DHT22;16707;48.106;11.548;2024-02-14T02:23:33;3.90;99.90
29813;DHT22;16707;48.106;11.548;2024-02-14T02:26:00;3.90;99.90
29813;DHT22;16707;48.106;11.548;2024-02-14T02:28:27;3.90;99.90
29813;DHT22;16707;48.106;11.548;2024-02-14T02:30:53;3.90;99.90
29813;DHT22;16707;48.106;11.548;2024-02-14T02:33:21;3.80;99.90
29813;DHT22;16707;48.106;11.548;2024-02-14T02:35:48;3.70;99.90
29813;DHT22;16707;48.106;11.548;2024-02-14T02:38:15;3.60;99.90
29813;DHT22;16707;48.106;11.548;2024-02-14T02:40:43;3.50;99.90
29813;DHT22;16707;48.106;11.548;2024-02-14T02:43:10;3.40;99.90
29813;DHT22;16707;48.106;11.548;2024-02-14T02:45:36;3.30;99.90
29813;DHT22;16707;48.106;11.548;2024-02-14T02:48:04;3.20;99.90
29813;DHT22;16707;48.106;11.548;2024-02-14T02:50:31;3.10;99.90
29813;DHT22;16707;48.106;11.548;2024-02-14T02:52:58;3.00;99.90
29813;DHT22;16707;48.106;11.548;2024-02-14T02:55:24;3.00;99.90
29813;DHT22;16707;48.106;11.548;2024-02-14T02:57:53;3.00;99.90
29813;DHT22;16707;48.106;11.548;2024-02-14T03:00:21;3.00;99.90
29813;DHT22;16707;48.106;11.548;2024-02-14T03:02:47;3.10;99.90
29813;DHT22;16707;48.106;11.548;2024-02-14T03:05:14;3.20;99.90
29813;DHT22;16707;48.106;11.548;2024-02-14T03:07:44;3.40;99.90
29813;DHT22;16707;48.106;11.548;2024-02-14T03:10:13;3.40;99.90
29813;DHT22;16707;48.106;11.548;2024-02-14T03:12:44;3.30;99.90
29813;DHT22;16707;48.106;11.548;2024-02-14T03:15:13;3.30;99.90
29813;DHT22;16707;48.106;11.548;2024-02-14T03:17:39;3.40;99.90
29813;DHT22;16707;48.106;11.548;2024-02-14T03:20:07;3.40;99.90
29813;DHT22;16707;48.106;11.548;2024-02-14T03:22:38;3.40;99.90
29813;DHT22;16707;48.106;11.548;2024-02-14T03:25:08;3.50;99.90
29813;DHT22;16707;48.106;11.548;2024-02-14T03:27:35;3.40;99.90
29813;DHT22;16707;48.106;11.548;2024-02-14T03:30:02;3.30;99.90
29813;DHT22;16707;48.106;11.548;2024-02-14T03:32:31;3.40;99.90
29813;DHT22;16707;48.106;11.548;2024-02-14T03:34:58;3.40;99.90
29813;DHT22;16707;48.106;11.548;2024-02-14T03:37:26;3.50;99.90
29813;DHT22;16707;48.106;11.548;2024-02-14T03:39:52;3.50;99.90
29813;DHT22;16707;48.106;11.548;2024-02-14T03:42:19;3.50;99.90
29813;DHT22;16707;48.106;11.548;2024-02-14T03:44:46;3.60;99.90
29813;DHT22;16707;48.106;11.548;2024-02-14T03:47:13;3.60;99.90
29813;DHT22;16707;48.106;11.548;2024-02-14T03:49:41;3.50;99.90
29813;DHT22;16707;48.106;11.548;2024-02-14T03:52:07;3.40;99.90
29813;DHT22;16707;48.106;11.548;2024-02-14T03:54:35;3.30;99.90
29813;DHT22;16707;48.106;11.548;2024-02-14T03:57:02;3.10;99.90
29813;DHT22;16707;48.106;11.548;2024-02-14T03:59:30;2.90;99.90
29813;DHT22;16707;48.106;11.548;2024-02-14T04:01:58;2.70;99.90
29813;DHT22;16707;48.106;11.548;2024-02-14T04:04:24;2.60;99.90
29813;DHT22;16707;48.106;11.548;2024-02-14T04:06:52;2.50;99.90
29813;DHT22;16707;48.106;11.548;2024-02-14T04:09:19;2.30;99.90
29813;DHT22;16707;48.106;11.548;2024-02-14T04:11:46;2.20;99.90
29813;DHT22;16707;48.106;11.548;2024-02-14T04:14:13;2.20;99.90
29813;DHT22;16707;48.106;11.548;2024-02-14T04:16:40;2.10;99.90
29813;DHT22;16707;48.106;11.548;2024-02-14T04:19:07;2.00;99.90
29813;DHT22;16707;48.106;11.548;2024-02-14T04:21:34;2.00;99.90
29813;DHT22;16707;48.106;11.548;2024-02-14T04:24:02;1.80;99.90
29813;DHT22;16707;48.106;11.548;2024-02-14T04:26:29;1.80;99.90
29813;DHT22;16707;48.106;11.548;2024-02-14T04:28:56;1.70;99.90
29813;DHT22;16707;48.106;11.548;2024-02-14T04:31:22;1.70;99.90
29813;DHT22;16707;48.106;11.548;2024-02-14T04:33:49;1.60;99.90
29813;DHT22;16707;48.106;11.548;2024-02-14T04:36:17;1.70;99.90
29813;DHT22;16707;48.106;11.548;2024-02-14T04:38:44;1.80;99.90
29813;DHT22;16707;48.106;11.548;2024-02-14T04:41:12;2.00;99.90
29813;DHT22;16707;48.106;11.548;2024-02-14T04:43:39;2.30;99.90
29813;DHT22;16707;48.106;11.548;2024-02-14T04:46:06;2.50;99.90
29813;DHT22;16707;48.106;11.548;2024-02-14T04:48:34;2.70;99.90
29813;DHT22;16707;48.106;11.548;2024-02-14T04:51:00;2.80;99.90
29813;DHT22;16707;48.106;11.548;2024-02-14T04:53:27;2.90;99.90
29813;DHT22;16707;48.106;11.548;2024-02-14T04:55:54;3.00;99.90
29813;DHT22;16707;48.106;11.548;2024-02-14T04:58:22;3.10;99.90
29813;DHT22;16707;48.106;11.548;2024-02-14T05:00:48;3.20;99.90
29813;DHT22;16707;48.106;11.548;2024-02-14T05:03:15;3.30;99.90
29813;DHT22;16707;48.106;11.548;2024-02-14T05:05:42;3.30;99.90
29813;DHT22;16707;48.106;11.548;2024-02-14T05:08:09;3.30;99.90
29813;DHT22;16707;48.106;11.548;2024-02-14T05:10:36;3.40;99.90
29813;DHT22;16707;48.106;11.548;2024-02-14T05:13:03;3.30;99.90
29813;DHT22;16707;48.106;11.548;2024-02-14T05:15:31;3.30;99.90
29813;DHT22;16707;48.106;11.548;2024-02-14T05:18:00;3.30;99.90
29813;DHT22;16707;48.106;11.548;2024-02-14T05:20:27;3.20;99.90
29813;DHT22;16707;48.106;11.548;2024-02-14T05:22:54;3.20;99.90
29813;DHT22;16707;48.106;11.548;2024-02-14T05:25:21;3.10;99.90
29813;DHT22;16707;48.106;11.548;2024-02-14T05:27:47;3.00;99.90
29813;DHT22;16707;48.106;11.548;2024-02-14T05:30:14;2.90;99.90
29813;DHT22;16707;48.106;11.548;2024-02-14T05:32:42;2.80;99.90
29813;DHT22;16707;48.106;11.548;2024-02-14T05:35:09;2.70;99.90
29813;DHT22;16707;48.106;11.548;2024-02-14T05:37:35;2.70;99.90
29813;DHT22;16707;48.106;11.548;2024-02-14T05:40:03;2.70;99.90
29813;DHT22;16707;48.106;11.548;2024-02-14T05:42:31;2.80;99.90
29813;DHT22;16707;48.106;11.548;2024-02-14T05:44:59;3.00;99.90
29813;DHT22;16707;48.106;11.548;2024-02-14T05:47:29;3.20;99.90
29813;DHT22;16707;48.106;11.548;2024-02-14T05:49:58;3.30;99.90
29813;DHT22;16707;48.106;11.548;2024-02-14T05:52:24;3.50;99.90
29813;DHT22;16707;48.106;11.548;2024-02-14T05:54:51;3.80;99.90
29813;DHT22;16707;48.106;11.548;2024-02-14T05:57:18;3.90;99.90
29813;DHT22;16707;48.106;11.548;2024-02-14T05:59:44;4.00;99.90
29813;DHT22;16707;48.106;11.548;2024-02-14T06:02:11;4.00;99.90
29813;DHT22;16707;48.106;11.548;2024-02-14T06:04:38;4.00;99.90
29813;DHT22;16707;48.106;11.548;2024-02-14T06:07:09;4.10;99.90
29813;DHT22;16707;48.106;11.548;2024-02-14T06:09:37;4.10;99.90
29813;DHT22;16707;48.106;11.548;2024-02-14T06:12:04;4.10;99.90
29813;DHT22;16707;48.106;11.548;2024-02-14T06:14:30;4.00;99.90
29813;DHT22;16707;48.106;11.548;2024-02-14T06:16:59;4.30;99.90
29813;DHT22;16707;48.106;11.548;2024-02-14T06:19:26;4.50;99.90
29813;DHT22;16707;48.106;11.548;2024-02-14T06:21:52;4.50;99.90
29813;DHT22;16707;48.106;11.548;2024-02-14T06:24:21;4.50;99.90
29813;DHT22;16707;48.106;11.548;2024-02-14T06:26:47;4.50;99.90
29813;DHT22;16707;48.106;11.548;2024-02-14T06:29:14;4.70;99.90
29813;DHT22;16707;48.106;11.548;2024-02-14T06:31:41;4.70;99.90
29813;DHT22;16707;48.106;11.548;2024-02-14T06:34:07;4.50;99.90
29813;DHT22;16707;48.106;11.548;2024-02-14T06:36:34;4.50;99.90
29813;DHT22;16707;48.106;11.548;2024-02-14T06:39:01;4.40;99.90
29813;DHT22;16707;48.106;11.548;2024-02-14T06:41:29;4.40;99.90
29813;DHT22;16707;48.106;11.548;2024-02-14T06:43:56;4.40;99.90
29813;DHT22;16707;48.106;11.548;2024-02-14T06:46:23;4.50;99.90
29813;DHT22;16707;48.106;11.548;2024-02-14T06:48:50;4.50;99.90
29813;DHT22;16707;48.106;11.548;2024-02-14T06:51:17;4.40;99.90
29813;DHT22;16707;48.106;11.548;2024-02-14T06:53:43;4.30;99.90
29813;DHT22;16707;48.106;11.548;2024-02-14T06:56:10;4.40;99.90
29813;DHT22;16707;48.106;11.548;2024-02-14T06:58:38;4.50;99.90
29813;DHT22;16707;48.106;11.548;2024-02-14T07:01:05;4.70;99.90
29813;DHT22;16707;48.106;11.548;2024-02-14T07:03:32;4.80;99.90
29813;DHT22;16707;48.106;11.548;2024-02-14T07:05:59;4.90;99.90
29813;DHT22;16707;48.106;11.548;2024-02-14T07:08:26;5.10;99.90
29813;DHT22;16707;48.106;11.548;2024-02-14T07:10:53;5.10;99.90
29813;DHT22;16707;48.106;11.548;2024-02-14T07:13:20;5.30;99.90
29813;DHT22;16707;48.106;11.548;2024-02-14T07:15:48;5.40;99.90
29813;DHT22;16707;48.106;11.548;2024-02-14T07:18:15;5.40;99.90
29813;DHT22;16707;48.106;11.548;2024-02-14T07:20:42;5.60;99.90
29813;DHT22;16707;48.106;11.548;2024-02-14T07:23:09;5.70;99.90
29813;DHT22;16707;48.106;11.548;2024-02-14T07:25:35;5.70;99.90
29813;DHT22;16707;48.106;11.548;2024-02-14T07:28:02;5.70;99.90
29813;DHT22;16707;48.106;11.548;2024-02-14T07:30:29;5.80;99.90
29813;DHT22;16707;48.106;11.548;2024-02-14T07:32:57;5.90;99.90
29813;DHT22;16707;48.106;11.548;2024-02-14T07:35:24;6.00;99.90
29813;DHT22;16707;48.106;11.548;2024-02-14T07:37:51;5.90;99.90
29813;DHT22;16707;48.106;11.548;2024-02-14T07:40:18;6.10;99.90
29813;DHT22;16707;48.106;11.548;2024-02-14T07:42:45;6.20;99.90
29813;DHT22;16707;48.106;11.548;2024-02-14T07:45:11;6.20;99.90
29813;DHT22;16707;48.106;11.548;2024-02-14T07:47:38;6.50;99.90
29813;DHT22;16707;48.106;11.548;2024-02-14T07:50:07;6.60;99.90
29813;DHT22;16707;48.106;11.548;2024-02-14T07:52:34;6.80;99.90
29813;DHT22;16707;48.106;11.548;2024-02-14T07:55:05;7.00;99.20
29813;DHT22;16707;48.106;11.548;2024-02-14T07:57:32;7.00;98.70
29813;DHT22;16707;48.106;11.548;2024-02-14T07:59:59;7.20;98.30
29813;DHT22;16707;48.106;11.548;2024-02-14T08:02:26;7.30;97.60
29813;DHT22;16707;48.106;11.548;2024-02-14T08:04:54;7.30;97.30
29813;DHT22;16707;48.106;11.548;2024-02-14T08:07:22;7.30;97.40
29813;DHT22;16707;48.106;11.548;2024-02-14T08:09:49;7.40;97.00
29813;DHT22;16707;48.106;11.548;2024-02-14T08:12:16;7.40;96.90
29813;DHT22;16707;48.106;11.548;2024-02-14T08:14:42;7.40;96.50
29813;DHT22;16707;48.106;11.548;2024-02-14T08:17:09;7.40;96.80
29813;DHT22;16707;48.106;11.548;2024-02-14T08:19:36;7.70;96.70
29813;DHT22;16707;48.106;11.548;2024-02-14T08:22:03;7.90;96.10
29813;DHT22;16707;48.106;11.548;2024-02-14T08:24:32;8.10;95.70
29813;DHT22;16707;48.106;11.548;2024-02-14T08:26:59;8.20;94.80
29813;DHT22;16707;48.106;11.548;2024-02-14T08:29:25;8.30;94.40
29813;DHT22;16707;48.106;11.548;2024-02-14T08:31:52;8.10;94.50
29813;DHT22;16707;48.106;11.548;2024-02-14T08:34:19;8.20;94.70
29813;DHT22;16707;48.106;11.548;2024-02-14T08:36:46;8.30;94.20
29813;DHT22;16707;48.106;11.548;2024-02-14T08:39:12;8.30;94.10
29813;DHT22;16707;48.106;11.548;2024-02-14T08:41:43;8.20;94.20
29813;DHT22;16707;48.106;11.548;2024-02-14T08:44:12;8.40;93.90
29813;DHT22;16707;48.106;11.548;2024-02-14T08:46:39;8.50;93.00
29813;DHT22;16707;48.106;11.548;2024-02-14T08:49:07;8.70;92.20
29813;DHT22;16707;48.106;11.548;2024-02-14T08:51:34;8.70;91.80
29813;DHT22;16707;48.106;11.548;2024-02-14T08:54:02;8.90;91.60
29813;DHT22;16707;48.106;11.548;2024-02-14T08:56:30;9.10;91.60
29813;DHT22;16707;48.106;11.548;2024-02-14T08:59:00;9.00;91.30
29813;DHT22;16707;48.106;11.548;2024-02-14T09:01:27;8.90;91.60
29813;DHT22;16707;48.106;11.548;2024-02-14T09:03:54;8.90;91.30
29813;DHT22;16707;48.106;11.548;2024-02-14T09:06:21;9.10;91.30
29813;DHT22;16707;48.106;11.548;2024-02-14T09:08:47;9.60;90.40
29813;DHT22;16707;48.106;11.548;2024-02-14T09:11:16;10.20;88.90
29813;DHT22;16707;48.106;11.548;2024-02-14T09:13:43;10.40;84.30
29813;DHT22;16707;48.106;11.548;2024-02-14T09:16:14;10.40;84.40
29813;DHT22;16707;48.106;11.548;2024-02-14T09:18:41;10.80;82.80
29813;DHT22;16707;48.106;11.548;2024-02-14T09:21:08;11.10;80.90
29813;DHT22;16707;48.106;11.548;2024-02-14T09:23:35;11.30;78.80
29813;DHT22;16707;48.106;11.548;2024-02-14T09:26:04;11.80;77.70
29813;DHT22;16707;48.106;11.548;2024-02-14T09:28:31;12.20;75.80
29813;DHT22;16707;48.106;11.548;2024-02-14T09:30:58;12.50;74.60
29813;DHT22;16707;48.106;11.548;2024-02-14T09:33:26;12.70;71.70
29813;DHT22;16707;48.106;11.548;2024-02-14T09:35:53;13.00;69.50
29813;DHT22;16707;48.106;11.548;2024-02-14T09:38:20;13.00;68.70
29813;DHT22;16707;48.106;11.548;2024-02-14T09:40:47;13.20;69.80
29813;DHT22;16707;48.106;11.548;2024-02-14T09:43:17;13.40;67.70
29813;DHT22;16707;48.106;11.548;2024-02-14T09:45:45;13.50;66.90
29813;DHT22;16707;48.106;11.548;2024-02-14T09:48:12;13.40;66.30
29813;DHT22;16707;48.106;11.548;2024-02-14T09:50:42;13.50;65.90
29813;DHT22;16707;48.106;11.548;2024-02-14T09:53:09;13.50;64.80
29813;DHT22;16707;48.106;11.548;2024-02-14T09:55:37;13.70;65.30
29813;DHT22;16707;48.106;11.548;2024-02-14T09:58:04;13.80;64.80
29813;DHT22;16707;48.106;11.548;2024-02-14T10:00:32;13.80;63.30
29813;DHT22;16707;48.106;11.548;2024-02-14T10:02:59;13.80;63.40
29813;DHT22;16707;48.106;11.548;2024-02-14T10:05:26;13.80;62.70
29813;DHT22;16707;48.106;11.548;2024-02-14T10:07:56;13.70;62.10
29813;DHT22;16707;48.106;11.548;2024-02-14T10:10:23;13.60;63.20
29813;DHT22;16707;48.106;11.548;2024-02-14T10:12:49;13.50;63.10
29813;DHT22;16707;48.106;11.548;2024-02-14T10:15:16;13.60;63.30
29813;DHT22;16707;48.106;11.548;2024-02-14T10:17:43;13.50;63.20
29813;DHT22;16707;48.106;11.548;2024-02-14T10:20:10;13.70;62.80
29813;DHT22;16707;48.106;11.548;2024-02-14T10:22:38;14.00;63.20
29813;DHT22;16707;48.106;11.548;2024-02-14T10:25:07;14.20;62.20
29813;DHT22;16707;48.106;11.548;2024-02-14T10:27:37;14.40;62.60
29813;DHT22;16707;48.106;11.548;2024-02-14T10:30:05;14.60;61.40
29813;DHT22;16707;48.106;11.548;2024-02-14T10:32:34;14.90;60.50
29813;DHT22;16707;48.106;11.548;2024-02-14T10:35:03;15.30;60.10
29813;DHT22;16707;48.106;11.548;2024-02-14T10:37:31;15.50;58.50
29813;DHT22;16707;48.106;11.548;2024-02-14T10:39:57;15.40;58.60
29813;DHT22;16707;48.106;11.548;2024-02-14T10:42:28;15.30;58.90
29813;DHT22;16707;48.106;11.548;2024-02-14T10:44:55;15.10;59.20
29813;DHT22;16707;48.106;11.548;2024-02-14T10:47:23;15.10;59.90
29813;DHT22;16707;48.106;11.548;2024-02-14T10:49:51;15.10;61.00
29813;DHT22;16707;48.106;11.548;2024-02-14T10:52:18;15.00;60.40
29813;DHT22;16707;48.106;11.548;2024-02-14T10:54:47;15.00;60.80
29813;DHT22;16707;48.106;11.548;2024-02-14T10:57:18;15.10;60.50
29813;DHT22;16707;48.106;11.548;2024-02-14T10:59:48;15.20;60.30
29813;DHT22;16707;48.106;11.548;2024-02-14T11:02:15;15.30;60.50
29813;DHT22;16707;48.106;11.548;2024-02-14T11:04:43;15.50;60.30
29813;DHT22;16707;48.106;11.548;2024-02-14T11:07:10;15.80;59.80
29813;DHT22;16707;48.106;11.548;2024-02-14T11:09:38;15.70;60.00
29813;DHT22;16707;48.106;11.548;2024-02-14T11:12:07;15.80;60.40
29813;DHT22;16707;48.106;11.548;2024-02-14T11:14:34;16.20;59.30
29813;DHT22;16707;48.106;11.548;2024-02-14T11:17:08;16.40;58.60
29813;DHT22;16707;48.106;11.548;2024-02-14T11:19:35;16.70;58.10
29813;DHT22;16707;48.106;11.548;2024-02-14T11:22:09;16.80;57.90
29813;DHT22;16707;48.106;11.548;2024-02-14T11:24:37;16.50;57.70
29813;DHT22;16707;48.106;11.548;2024-02-14T11:27:09;16.10;58.40
29813;DHT22;16707;48.106;11.548;2024-02-14T11:29:38;15.70;59.10
29813;DHT22;16707;48.106;11.548;2024-02-14T11:32:06;15.40;59.90
29813;DHT22;16707;48.106;11.548;2024-02-14T11:34:35;15.30;60.10
29813;DHT22;16707;48.106;11.548;2024-02-14T11:37:02;15.50;60.70
29813;DHT22;16707;48.106;11.548;2024-02-14T11:39:29;15.50;60.70
29813;DHT22;16707;48.106;11.548;2024-02-14T11:41:56;15.50;60.40
29813;DHT22;16707;48.106;11.548;2024-02-14T11:44:24;15.60;60.30
29813;DHT22;16707;48.106;11.548;2024-02-14T11:46:52;15.70;60.40
29813;DHT22;16707;48.106;11.548;2024-02-14T11:49:20;15.60;59.70
29813;DHT22;16707;48.106;11.548;2024-02-14T11:51:48;15.70;60.50
29813;DHT22;16707;48.106;11.548;2024-02-14T11:54:14;15.70;59.50
29813;DHT22;16707;48.106;11.548;2024-02-14T11:56:42;15.60;59.40
29813;DHT22;16707;48.106;11.548;2024-02-14T11:59:09;15.70;60.20
29813;DHT22;16707;48.106;11.548;2024-02-14T12:01:36;15.70;59.40
29813;DHT22;16707;48.106;11.548;2024-02-14T12:04:04;15.80;58.80
29813;DHT22;16707;48.106;11.548;2024-02-14T12:06:34;15.80;58.60
29813;DHT22;16707;48.106;11.548;2024-02-14T12:09:01;15.90;58.50
29813;DHT22;16707;48.106;11.548;2024-02-14T12:11:30;15.90;58.50
29813;DHT22;16707;48.106;11.548;2024-02-14T12:14:00;16.00;59.10
29813;DHT22;16707;48.106;11.548;2024-02-14T12:16:27;16.10;58.60
29813;DHT22;16707;48.106;11.548;2024-02-14T12:19:02;16.20;58.20
29813;DHT22;16707;48.106;11.548;2024-02-14T12:21:34;16.30;58.10
29813;DHT22;16707;48.106;11.548;2024-02-14T12:24:01;16.30;57.80
29813;DHT22;16707;48.106;11.548;2024-02-14T12:26:29;16.30;58.30
29813;DHT22;16707;48.106;11.548;2024-02-14T12:28:57;16.40;58.20
29813;DHT22;16707;48.106;11.548;2024-02-14T12:31:24;16.40;57.60
29813;DHT22;16707;48.106;11.548;2024-02-14T12:33:51;16.40;57.80
29813;DHT22;16707;48.106;11.548;2024-02-14T12:36:20;16.40;58.60
29813;DHT22;16707;48.106;11.548;2024-02-14T12:38:49;16.30;57.40
29813;DHT22;16707;48.106;11.548;2024-02-14T12:41:17;16.20;56.90
29813;DHT22;16707;48.106;11.548;2024-02-14T12:43:43;16.20;56.80
29813;DHT22;16707;48.106;11.548;2024-02-14T12:46:10;16.30;55.90
29813;DHT22;16707;48.106;11.548;2024-02-14T12:48:37;16.40;56.40
29813;DHT22;16707;48.106;11.548;2024-02-14T12:51:04;16.60;56.20
29813;DHT22;16707;48.106;11.548;2024-02-14T12:53:31;16.70;55.70
29813;DHT22;16707;48.106;11.548;2024-02-14T12:55:59;16.60;56.00
29813;DHT22;16707;48.106;11.548;2024-02-14T12:58:25;16.20;56.20
29813;DHT22;16707;48.106;11.548;2024-02-14T13:00:52;15.90;58.60
29813;DHT22;16707;48.106;11.548;2024-02-14T13:03:19;15.70;61.70
29813;DHT22;16707;48.106;11.548;2024-02-14T13:05:46;15.50;64.70
29813;DHT22;16707;48.106;11.548;2024-02-14T13:08:13;15.20;66.60
29813;DHT22;16707;48.106;11.548;2024-02-14T13:10:42;15.20;70.10
29813;DHT22;16707;48.106;11.548;2024-02-14T13:13:10;15.20;70.20
29813;DHT22;16707;48.106;11.548;2024-02-14T13:15:37;15.30;69.30
29813;DHT22;16707;48.106;11.548;2024-02-14T13:18:03;15.30;69.10
29813;DHT22;16707;48.106;11.548;2024-02-14T13:20:30;15.30;69.20
29813;DHT22;16707;48.106;11.548;2024-02-14T13:22:57;15.30;68.90
29813;DHT22;16707;48.106;11.548;2024-02-14T13:25:24;15.50;68.60
29813;DHT22;16707;48.106;11.548;2024-02-14T13:27:51;15.60;69.10
29813;DHT22;16707;48.106;11.548;2024-02-14T13:30:21;15.60;68.00
29813;DHT22;16707;48.106;11.548;2024-02-14T13:32:48;15.70;67.20
29813;DHT22;16707;48.106;11.548;2024-02-14T13:35:15;15.70;67.20
29813;DHT22;16707;48.106;11.548;2024-02-14T13:37:42;15.60;67.00
29813;DHT22;16707;48.106;11.548;2024-02-14T13:40:10;15.50;66.50
29813;DHT22;16707;48.106;11.548;2024-02-14T13:42:37;15.40;67.20
29813;DHT22;16707;48.106;11.548;2024-02-14T13:45:07;15.50;67.90
29813;DHT22;16707;48.106;11.548;2024-02-14T13:47:36;15.50;65.90
29813;DHT22;16707;48.106;11.548;2024-02-14T13:50:05;15.60;66.50
29813;DHT22;16707;48.106;11.548;2024-02-14T13:52:32;15.80;66.70
29813;DHT22;16707;48.106;11.548;2024-02-14T13:55:00;15.80;65.40
29813;DHT22;16707;48.106;11.548;2024-02-14T13:57:27;15.70;65.20
29813;DHT22;16707;48.106;11.548;2024-02-14T13:59:54;15.80;65.00
29813;DHT22;16707;48.106;11.548;2024-02-14T14:02:21;15.90;64.90
29813;DHT22;16707;48.106;11.548;2024-02-14T14:04:50;15.70;66.60
29813;DHT22;16707;48.106;11.548;2024-02-14T14:07:18;15.20;65.30
29813;DHT22;16707;48.106;11.548;2024-02-14T14:09:45;14.70;67.90
29813;DHT22;16707;48.106;11.548;2024-02-14T14:12:12;14.30;69.50
29813;DHT22;16707;48.106;11.548;2024-02-14T14:14:39;14.20;70.30
29813;DHT22;16707;48.106;11.548;2024-02-14T14:17:06;14.30;71.00
29813;DHT22;16707;48.106;11.548;2024-02-14T14:19:32;14.50;71.00
29813;DHT22;16707;48.106;11.548;2024-02-14T14:22:00;14.60;71.00
29813;DHT22;16707;48.106;11.548;2024-02-14T14:24:27;14.80;70.40
29813;DHT22;16707;48.106;11.548;2024-02-14T14:26:56;14.90;70.30
29813;DHT22;16707;48.106;11.548;2024-02-14T14:29:23;15.00;71.10
29813;DHT22;16707;48.106;11.548;2024-02-14T14:31:49;14.90;71.20
29813;DHT22;16707;48.106;11.548;2024-02-14T14:34:16;15.00;72.10
29813;DHT22;16707;48.106;11.548;2024-02-14T14:36:44;15.00;72.40
29813;DHT22;16707;48.106;11.548;2024-02-14T14:39:13;15.20;72.50
29813;DHT22;16707;48.106;11.548;2024-02-14T14:41:39;15.30;73.20
29813;DHT22;16707;48.106;11.548;2024-02-14T14:44:07;15.40;73.10
29813;DHT22;16707;48.106;11.548;2024-02-14T14:46:34;15.20;73.40
29813;DHT22;16707;48.106;11.548;2024-02-14T14:49:01;15.00;74.80
29813;DHT22;16707;48.106;11.548;2024-02-14T14:51:27;14.90;75.50
29813;DHT22;16707;48.106;11.548;2024-02-14T14:53:54;14.80;76.60
29813;DHT22;16707;48.106;11.548;2024-02-14T14:56:22;14.90;76.40
29813;DHT22;16707;48.106;11.548;2024-02-14T14:58:51;15.00;76.30
29813;DHT22;16707;48.106;11.548;2024-02-14T15:01:17;15.00;76.20
29813;DHT22;16707;48.106;11.548;2024-02-14T15:03:44;14.80;76.80
29813;DHT22;16707;48.106;11.548;2024-02-14T15:06:11;14.80;77.40
29813;DHT22;16707;48.106;11.548;2024-02-14T15:08:38;14.80;78.00
29813;DHT22;16707;48.106;11.548;2024-02-14T15:11:05;14.60;78.00
29813;DHT22;16707;48.106;11.548;2024-02-14T15:13:33;14.30;79.20
29813;DHT22;16707;48.106;11.548;2024-02-14T15:16:00;14.10;80.70
29813;DHT22;16707;48.106;11.548;2024-02-14T15:18:28;13.90;81.60
29813;DHT22;16707;48.106;11.548;2024-02-14T15:20:55;13.80;82.80
29813;DHT22;16707;48.106;11.548;2024-02-14T15:23:22;13.60;83.80
29813;DHT22;16707;48.106;11.548;2024-02-14T15:25:48;13.60;84.10